Time;durP1;ratioP1;P1;durP2;ratioP2;P2;SDS_P1;SDS_P2;PMS_P1;PMS_P2;Temp;Humidity;BMP_temperature;BMP_pressure;BME280_temperature;BME280_humidity;BME280_pressure;Samples;Min_cycle;Max_cycle;Signal;HPM_P1;HPM_P2
2023/04/13 00:01:18;;;;;;;3.37;0.90;;;7.70;99.90;;;;;;10419031;28;20235;-70
2023/04/13 00:06:19;;;;;;;1.83;0.63;;;7.70;99.90;;;;;;10429215;28;20230;-70
2023/04/13 00:11:19;;;;;;;1.23;0.70;;;7.70;99.90;;;;;;10404571;28;20243;-69
2023/04/13 00:16:21;;;;;;;2.13;0.50;;;7.60;99.90;;;;;;10409817;28;20224;-70
2023/04/13 00:21:22;;;;;;;1.47;0.50;;;7.50;99.90;;;;;;10420894;28;20387;-68
2023/04/13 00:26:24;;;;;;;1.17;0.60;;;7.50;99.90;;;;;;10427890;28;20300;-69
2023/04/13 00:31:24;;;;;;;0.57;0.57;;;7.50;99.90;;;;;;10419007;28;20703;-68
2023/04/13 00:36:26;;;;;;;2.13;0.77;;;7.40;99.90;;;;;;10416547;28;20213;-69
2023/04/13 00:41:27;;;;;;;1.60;0.47;;;7.40;99.90;;;;;;10423837;28;20227;-69
2023/04/13 00:46:28;;;;;;;1.10;0.70;;;7.30;99.90;;;;;;10425838;28;20223;-71
2023/04/13 00:51:29;;;;;;;1.63;0.60;;;7.20;99.90;;;;;;10408361;28;20718;-69
2023/04/13 00:56:30;;;;;;;1.00;0.60;;;7.10;99.90;;;;;;10424733;28;20290;-71
2023/04/13 01:01:30;;;;;;;1.20;0.37;;;7.10;99.90;;;;;;10416214;28;20227;-70
2023/04/13 01:06:40;;;;;;;2.60;0.70;;;7.20;99.90;;;;;;10408834;28;20343;-71
2023/04/13 01:11:57;;;;;;;1.17;0.50;;;7.20;99.90;;;;;;10416853;28;20339;-71
2023/04/13 01:17:02;;;;;;;1.47;0.40;;;7.20;99.90;;;;;;10419254;28;20702;-71
2023/04/13 01:22:03;;;;;;;1.40;0.60;;;7.10;99.90;;;;;;10414103;28;20781;-71
2023/04/13 01:27:12;;;;;;;2.17;0.90;;;7.10;99.90;;;;;;10410702;28;20256;-70
2023/04/13 01:32:16;;;;;;;2.80;1.00;;;7.10;99.90;;;;;;10408200;28;20327;-69
2023/04/13 01:37:17;;;;;;;2.90;0.93;;;7.10;99.90;;;;;;10414400;28;20720;-70
2023/04/13 01:42:17;;;;;;;2.13;0.83;;;7.10;99.90;;;;;;10413227;28;20229;-70
2023/04/13 01:47:21;;;;;;;3.03;1.20;;;7.10;99.90;;;;;;10428150;28;20227;-70
2023/04/13 01:52:26;;;;;;;3.37;0.80;;;7.10;99.90;;;;;;10411927;28;20231;-70
2023/04/13 01:57:30;;;;;;;3.50;1.50;;;7.10;99.90;;;;;;10427868;28;20239;-69
2023/04/13 02:02:30;;;;;;;5.60;0.90;;;7.10;99.90;;;;;;10415848;28;20282;-70
2023/04/13 02:07:32;;;;;;;2.80;1.07;;;7.10;99.90;;;;;;10415339;28;20250;-69
2023/04/13 02:12:33;;;;;;;4.07;1.60;;;7.10;99.90;;;;;;10408384;28;20605;-71
2023/04/13 02:17:33;;;;;;;4.67;1.10;;;7.10;99.90;;;;;;10416590;28;20220;-71
2023/04/13 02:22:34;;;;;;;3.90;1.10;;;7.00;99.90;;;;;;10416586;28;20223;-68
2023/04/13 02:27:34;;;;;;;1.87;0.93;;;7.00;99.90;;;;;;10420815;28;20277;-68
2023/04/13 02:32:39;;;;;;;3.23;0.90;;;6.90;99.90;;;;;;10421939;28;20286;-69
2023/04/13 02:37:40;;;;;;;2.87;0.97;;;6.90;99.90;;;;;;10425749;28;20220;-68
2023/04/13 02:42:41;;;;;;;5.30;1.13;;;6.90;99.90;;;;;;10430160;28;20212;-71
2023/04/13 02:47:43;;;;;;;2.30;0.87;;;7.00;99.90;;;;;;10419894;28;20235;-71
2023/04/13 02:52:45;;;;;;;2.87;1.13;;;7.20;99.90;;;;;;10419564;28;20228;-70
2023/04/13 02:57:46;;;;;;;5.47;1.00;;;7.40;99.90;;;;;;10419250;28;20362;-69
2023/04/13 03:02:46;;;;;;;4.80;1.00;;;7.50;99.90;;;;;;10433585;28;20432;-68
2023/04/13 03:07:48;;;;;;;4.83;0.80;;;7.70;99.90;;;;;;10426167;28;20224;-69
2023/04/13 03:12:54;;;;;;;2.40;1.03;;;7.80;99.90;;;;;;10437326;28;20250;-68
2023/04/13 03:17:58;;;;;;;3.97;1.20;;;8.00;99.90;;;;;;10415775;28;20437;-69
2023/04/13 03:23:00;;;;;;;2.83;1.00;;;8.00;99.90;;;;;;10425826;28;20294;-71
2023/04/13 03:28:01;;;;;;;2.83;0.80;;;8.10;99.90;;;;;;10424056;28;20890;-69
2023/04/13 03:33:01;;;;;;;4.83;1.00;;;8.20;99.90;;;;;;10431268;28;20235;-68
2023/04/13 03:38:02;;;;;;;4.60;1.17;;;8.20;99.90;;;;;;10413394;28;20637;-68
2023/04/13 03:43:02;;;;;;;4.10;1.30;;;8.20;99.90;;;;;;10422869;28;20465;-68
2023/04/13 03:48:04;;;;;;;2.33;0.87;;;8.30;99.90;;;;;;10425050;28;20229;-68
2023/04/13 03:53:05;;;;;;;2.70;1.03;;;8.30;99.90;;;;;;10417191;28;20605;-69
2023/04/13 03:58:06;;;;;;;2.73;1.20;;;8.30;99.90;;;;;;10408922;28;20316;-69
2023/04/13 04:03:06;;;;;;;4.20;1.47;;;8.30;99.90;;;;;;10425496;28;20725;-68
2023/04/13 04:08:07;;;;;;;4.30;1.20;;;8.30;99.90;;;;;;10422396;28;20602;-68
2023/04/13 04:13:08;;;;;;;4.17;1.20;;;8.30;99.90;;;;;;10430283;28;20230;-69
2023/04/13 04:18:09;;;;;;;3.90;1.27;;;8.20;99.90;;;;;;10410921;28;20227;-70
2023/04/13 04:23:12;;;;;;;4.17;1.10;;;8.20;99.90;;;;;;10420725;28;20893;-68
2023/04/13 04:28:16;;;;;;;3.50;1.40;;;8.20;99.90;;;;;;10412732;28;20226;-69
2023/04/13 04:33:17;;;;;;;4.07;1.10;;;8.20;99.90;;;;;;10419916;28;20216;-69
2023/04/13 04:38:23;;;;;;;4.00;1.40;;;8.20;99.90;;;;;;10410426;28;20219;-75
2023/04/13 04:43:28;;;;;;;7.23;1.73;;;8.20;99.90;;;;;;10425003;28;20736;-70
2023/04/13 04:48:29;;;;;;;4.93;1.47;;;8.20;99.90;;;;;;10443831;28;20246;-75
2023/04/13 04:53:30;;;;;;;4.20;1.80;;;8.20;99.90;;;;;;10417474;28;20878;-71
2023/04/13 04:58:30;;;;;;;4.70;1.60;;;8.30;99.90;;;;;;10415232;28;20286;-71
2023/04/13 05:03:31;;;;;;;3.67;1.20;;;8.30;99.90;;;;;;10413282;28;20254;-70
2023/04/13 05:08:32;;;;;;;6.33;1.70;;;8.40;99.90;;;;;;10424426;28;20705;-72
2023/04/13 05:13:32;;;;;;;4.80;1.70;;;8.40;99.90;;;;;;10432035;28;20632;-71
2023/04/13 05:18:43;;;;;;;4.37;1.37;;;8.40;99.90;;;;;;10422441;28;20830;-71
2023/04/13 05:23:43;;;;;;;12.03;1.90;;;8.50;99.90;;;;;;10411188;28;20222;-70
2023/04/13 05:28:44;;;;;;;5.10;1.30;;;8.60;99.90;;;;;;10418008;28;20239;-70
2023/04/13 05:33:45;;;;;;;4.90;1.70;;;8.70;99.90;;;;;;10421038;28;20908;-70
2023/04/13 05:38:46;;;;;;;3.43;1.47;;;8.70;99.90;;;;;;10423955;28;20215;-73
2023/04/13 05:43:48;;;;;;;3.97;1.60;;;8.70;99.90;;;;;;10420516;28;20295;-73
2023/04/13 05:48:48;;;;;;;5.73;1.60;;;8.80;99.90;;;;;;10423505;28;20260;-72
2023/04/13 05:53:49;;;;;;;5.43;1.70;;;9.10;99.90;;;;;;10426694;28;20316;-72
2023/04/13 05:58:49;;;;;;;5.70;1.40;;;9.30;99.90;;;;;;10423160;28;20710;-72
2023/04/13 06:03:51;;;;;;;5.07;1.20;;;9.50;99.90;;;;;;10420849;28;20224;-72
2023/04/13 06:08:54;;;;;;;9.47;1.53;;;9.70;99.90;;;;;;10425887;28;20307;-72
2023/04/13 06:13:54;;;;;;;6.50;1.87;;;9.60;99.90;;;;;;10428256;28;20314;-72
2023/04/13 06:18:58;;;;;;;7.23;1.90;;;9.50;99.90;;;;;;10418488;28;20244;-73
2023/04/13 06:23:59;;;;;;;9.57;1.87;;;9.40;99.90;;;;;;10427394;28;20583;-72
2023/04/13 06:29:01;;;;;;;10.77;2.63;;;9.30;99.90;;;;;;10420794;28;20217;-72
2023/04/13 06:34:02;;;;;;;7.03;1.63;;;9.30;99.90;;;;;;10425926;28;20212;-72
2023/04/13 06:39:03;;;;;;;10.43;2.20;;;9.30;99.90;;;;;;10437540;28;20229;-72
2023/04/13 06:44:04;;;;;;;9.33;2.10;;;9.40;99.90;;;;;;10438569;28;20247;-73
2023/04/13 06:49:04;;;;;;;7.23;1.53;;;9.50;99.90;;;;;;10430499;28;20359;-72
2023/04/13 06:54:05;;;;;;;8.07;2.60;;;9.50;99.90;;;;;;10443545;28;20686;-72
2023/04/13 06:59:09;;;;;;;7.50;1.87;;;9.70;99.90;;;;;;10429704;28;20227;-72
2023/04/13 07:04:10;;;;;;;7.03;2.00;;;9.80;99.90;;;;;;10435629;28;20299;-72
2023/04/13 07:09:10;;;;;;;9.70;1.90;;;10.00;99.90;;;;;;10429185;28;20819;-72
2023/04/13 07:14:11;;;;;;;7.40;1.90;;;10.10;99.90;;;;;;10423058;28;20217;-73
2023/04/13 07:19:12;;;;;;;6.57;1.73;;;10.10;99.90;;;;;;10428596;28;20444;-72
2023/04/13 07:24:15;;;;;;;8.17;2.00;;;10.10;99.90;;;;;;10436580;28;20224;-72
2023/04/13 07:29:16;;;;;;;11.93;2.40;;;10.00;99.90;;;;;;10407771;28;20275;-72
2023/04/13 07:34:17;;;;;;;6.93;1.93;;;10.00;99.90;;;;;;10427872;28;20220;-72
2023/04/13 07:39:18;;;;;;;12.10;2.17;;;10.10;99.90;;;;;;10435360;28;20216;-72
2023/04/13 07:44:19;;;;;;;5.37;1.60;;;10.20;99.90;;;;;;10424897;28;20221;-72
2023/04/13 07:49:21;;;;;;;6.83;2.43;;;10.20;99.90;;;;;;10433158;28;20220;-73
2023/04/13 07:54:22;;;;;;;6.03;2.23;;;10.10;99.90;;;;;;10426195;28;20221;-72
2023/04/13 07:59:22;;;;;;;7.37;2.33;;;10.20;99.90;;;;;;10420628;28;20217;-71
2023/04/13 08:04:23;;;;;;;7.37;1.83;;;10.30;99.90;;;;;;10420216;28;20841;-73
2023/04/13 08:09:23;;;;;;;5.33;1.90;;;10.40;99.90;;;;;;10433059;28;20223;-72
2023/04/13 08:14:24;;;;;;;7.37;1.83;;;10.40;99.90;;;;;;10427386;28;20254;-71
2023/04/13 08:19:25;;;;;;;6.00;1.90;;;10.50;99.90;;;;;;10426622;28;20236;-72
2023/04/13 08:24:26;;;;;;;7.20;2.20;;;10.60;99.90;;;;;;10425821;28;20591;-72
2023/04/13 08:29:27;;;;;;;5.60;1.83;;;10.60;99.90;;;;;;10420750;28;20230;-71
2023/04/13 08:34:28;;;;;;;6.47;1.67;;;10.60;99.90;;;;;;10430718;28;20588;-72
2023/04/13 08:39:28;;;;;;;6.60;2.17;;;10.60;99.90;;;;;;10425044;28;20263;-71
2023/04/13 08:44:32;;;;;;;6.33;2.37;;;10.60;99.90;;;;;;10431688;28;20728;-72
2023/04/13 08:49:35;;;;;;;6.23;2.07;;;10.60;99.90;;;;;;10425567;28;20220;-73
2023/04/13 08:54:36;;;;;;;7.87;1.83;;;10.90;99.90;;;;;;10430152;28;20228;-72
2023/04/13 08:59:40;;;;;;;7.17;1.83;;;11.10;99.90;;;;;;10428158;28;20304;-73
2023/04/13 09:04:42;;;;;;;6.10;2.00;;;11.30;99.90;;;;;;10429528;28;20220;-72
2023/04/13 09:09:44;;;;;;;7.23;2.00;;;11.40;99.90;;;;;;10428391;28;20231;-72
2023/04/13 09:14:45;;;;;;;10.90;2.33;;;11.40;99.90;;;;;;10424211;28;20212;-71
2023/04/13 09:19:49;;;;;;;11.07;2.40;;;11.30;99.90;;;;;;10424789;28;20220;-73
2023/04/13 09:24:49;;;;;;;4.03;1.80;;;11.10;99.90;;;;;;10428721;28;20244;-72
2023/04/13 09:29:52;;;;;;;8.43;2.10;;;11.10;99.90;;;;;;10421566;28;20221;-72
2023/04/13 09:35:07;;;;;;;7.13;2.37;;;11.20;99.90;;;;;;10426636;28;20224;-71
2023/04/13 09:40:15;;;;;;;8.40;2.23;;;11.30;99.90;;;;;;10430552;28;20686;-72
2023/04/13 09:45:16;;;;;;;7.57;2.00;;;11.20;99.90;;;;;;10417538;28;20191;-70
2023/04/13 09:50:27;;;;;;;6.13;1.87;;;11.20;99.90;;;;;;10431746;28;20207;-72
2023/04/13 09:55:28;;;;;;;5.43;1.90;;;11.10;99.90;;;;;;10425592;28;20223;-71
2023/04/13 10:00:30;;;;;;;2.97;1.27;;;11.20;99.90;;;;;;10425629;28;20211;-71
2023/04/13 10:05:33;;;;;;;5.07;1.40;;;11.70;99.90;;;;;;10429609;28;20207;-71
2023/04/13 10:10:35;;;;;;;7.73;1.60;;;13.20;99.90;;;;;;10431020;28;20604;-72
2023/04/13 10:15:51;;;;;;;4.67;1.63;;;14.70;99.90;;;;;;10436423;28;20209;-72
2023/04/13 10:20:54;;;;;;;5.27;1.33;;;15.00;99.90;;;;;;10436157;28;20299;-71
2023/04/13 10:25:57;;;;;;;4.30;1.23;;;15.40;99.90;;;;;;10425433;28;20218;-72
2023/04/13 10:30:57;;;;;;;2.87;1.27;;;16.10;99.90;;;;;;10426812;28;20257;-74
2023/04/13 10:36:00;;;;;;;3.03;1.23;;;17.00;99.90;;;;;;10432391;28;20217;-71
2023/04/13 10:41:02;;;;;;;4.37;1.80;;;17.00;99.90;;;;;;10436860;28;20222;-72
2023/04/13 10:46:12;;;;;;;2.77;1.20;;;16.20;99.90;;;;;;10431884;28;20286;-72
2023/04/13 10:51:13;;;;;;;3.37;1.20;;;15.70;99.90;;;;;;10436966;28;20229;-72
2023/04/13 10:56:18;;;;;;;3.90;1.30;;;15.30;99.90;;;;;;10429188;28;20316;-72
2023/04/13 11:01:19;;;;;;;2.60;1.30;;;14.60;99.90;;;;;;10422295;28;20262;-72
2023/04/13 11:06:22;;;;;;;2.67;1.10;;;14.10;99.90;;;;;;10435898;28;20216;-71
2023/04/13 11:11:26;;;;;;;2.00;1.20;;;13.90;99.90;;;;;;10426282;28;20321;-71
2023/04/13 11:16:27;;;;;;;3.57;1.17;;;13.60;99.90;;;;;;10422144;28;20228;-71
2023/04/13 11:21:28;;;;;;;2.50;1.20;;;14.20;99.90;;;;;;10412540;28;20232;-71
2023/04/13 11:26:33;;;;;;;3.70;1.43;;;14.90;99.90;;;;;;10431534;28;20232;-71
2023/04/13 11:31:38;;;;;;;2.47;1.20;;;14.70;99.90;;;;;;10433632;28;20761;-71
2023/04/13 11:36:41;;;;;;;7.00;1.60;;;14.70;99.90;;;;;;10431155;28;20788;-71
2023/04/13 11:41:42;;;;;;;2.70;1.10;;;14.90;99.90;;;;;;10430469;28;20274;-72
2023/04/13 11:46:42;;;;;;;3.03;1.33;;;15.00;99.90;;;;;;10426041;28;20302;-71
2023/04/13 11:51:43;;;;;;;3.73;1.10;;;15.70;99.90;;;;;;10429089;28;20231;-71
2023/04/13 11:56:48;;;;;;;2.83;1.17;;;15.80;99.90;;;;;;10429301;28;20228;-72
2023/04/13 12:01:49;;;;;;;3.80;1.30;;;16.00;99.90;;;;;;10435391;28;20216;-72
2023/04/13 12:06:49;;;;;;;2.93;1.10;;;15.90;99.90;;;;;;10429026;28;20271;-72
2023/04/13 12:11:52;;;;;;;3.23;1.10;;;16.00;99.40;;;;;;10431121;28;20724;-71
2023/04/13 12:16:55;;;;;;;4.57;1.70;;;16.10;99.60;;;;;;10429721;28;20217;-71
2023/04/13 12:21:56;;;;;;;4.40;1.40;;;16.00;99.30;;;;;;10427522;28;20221;-71
2023/04/13 12:27:01;;;;;;;5.30;1.87;;;15.90;98.10;;;;;;10423861;28;20216;-72
2023/04/13 12:32:02;;;;;;;3.77;1.60;;;15.60;99.20;;;;;;10427860;28;20236;-71
2023/04/13 12:37:06;;;;;;;4.10;1.13;;;15.70;99.20;;;;;;10432286;28;20278;-73
2023/04/13 12:42:07;;;;;;;4.47;1.50;;;15.70;98.70;;;;;;10426716;28;20299;-72
2023/04/13 12:47:07;;;;;;;4.97;1.87;;;15.80;99.90;;;;;;10432241;28;20307;-71
2023/04/13 12:52:08;;;;;;;5.17;1.70;;;16.00;99.30;;;;;;10425887;28;20257;-71
2023/04/13 12:57:08;;;;;;;4.83;1.53;;;15.60;98.60;;;;;;10423124;28;20252;-71
2023/04/13 13:02:09;;;;;;;6.47;1.80;;;15.40;99.20;;;;;;10431628;28;20224;-72
2023/04/13 13:07:09;;;;;;;6.13;1.70;;;15.30;99.90;;;;;;10425104;28;20699;-72
2023/04/13 13:12:10;;;;;;;2.90;0.80;;;15.20;99.90;;;;;;10409804;28;20571;-72
2023/04/13 13:17:11;;;;;;;3.20;1.00;;;15.20;99.40;;;;;;10424408;28;20224;-72
2023/04/13 13:22:12;;;;;;;2.93;0.97;;;15.50;97.80;;;;;;10423209;28;20216;-72
2023/04/13 13:27:12;;;;;;;3.17;1.37;;;15.60;97.90;;;;;;10429470;28;20568;-71
2023/04/13 13:32:16;;;;;;;2.67;0.80;;;15.40;97.40;;;;;;10419471;28;20250;-70
2023/04/13 13:37:16;;;;;;;1.77;0.70;;;15.30;97.60;;;;;;10415915;28;20224;-71
2023/04/13 13:42:17;;;;;;;3.43;1.20;;;15.50;97.90;;;;;;10423588;28;20220;-72
2023/04/13 13:47:18;;;;;;;2.53;1.00;;;15.30;97.70;;;;;;10423786;28;20235;-72
2023/04/13 13:52:19;;;;;;;3.23;0.70;;;15.20;98.40;;;;;;10429065;28;20224;-72
2023/04/13 13:57:19;;;;;;;4.73;0.90;;;14.90;99.90;;;;;;10423973;28;20216;-73
2023/04/13 14:02:20;;;;;;;1.33;0.40;;;14.20;99.90;;;;;;10429536;28;20219;-70
2023/04/13 14:07:21;;;;;;;2.73;0.50;;;13.50;99.90;;;;;;10423620;28;20270;-72
2023/04/13 14:12:21;;;;;;;1.27;0.50;;;12.90;99.90;;;;;;10431528;28;20220;-71
2023/04/13 14:17:23;;;;;;;0.60;0.33;;;12.50;99.90;;;;;;10422933;28;20239;-73
2023/04/13 14:22:25;;;;;;;0.40;0.30;;;12.40;99.90;;;;;;10420598;28;20583;-73
2023/04/13 14:27:26;;;;;;;0.30;0.10;;;12.70;99.90;;;;;;10423782;28;20336;-72
2023/04/13 14:32:27;;;;;;;0.57;0.30;;;13.10;99.90;;;;;;10422093;28;20282;-71
2023/04/13 14:37:28;;;;;;;1.50;0.50;;;13.30;99.90;;;;;;10427248;28;20830;-73
2023/04/13 14:42:29;;;;;;;0.60;0.20;;;13.40;99.90;;;;;;10423893;28;20303;-71
2023/04/13 14:47:33;;;;;;;0.30;0.13;;;13.50;99.90;;;;;;10430079;28;20217;-73
2023/04/13 14:52:34;;;;;;;0.70;0.20;;;13.90;99.90;;;;;;10428307;28;20228;-72
2023/04/13 14:57:35;;;;;;;0.93;0.33;;;14.40;99.90;;;;;;10431751;28;20219;-71
2023/04/13 15:02:36;;;;;;;0.90;0.33;;;15.00;99.90;;;;;;10434247;28;20337;-72
2023/04/13 15:07:37;;;;;;;1.03;0.50;;;15.40;99.90;;;;;;10438895;28;20219;-72
2023/04/13 15:12:40;;;;;;;0.50;0.40;;;15.30;99.90;;;;;;10425055;28;20231;-72
2023/04/13 15:17:41;;;;;;;2.27;0.50;;;15.20;99.90;;;;;;10427786;28;20783;-72
2023/04/13 15:22:41;;;;;;;0.60;0.40;;;15.10;99.50;;;;;;10431838;28;20362;-71
2023/04/13 15:27:42;;;;;;;1.10;0.40;;;14.80;99.70;;;;;;10422760;28;20722;-71
2023/04/13 15:32:42;;;;;;;1.50;0.63;;;14.50;99.90;;;;;;10424629;28;20226;-71
2023/04/13 15:37:43;;;;;;;2.30;0.63;;;14.20;99.90;;;;;;10431023;28;20221;-73
2023/04/13 15:42:44;;;;;;;1.83;0.60;;;13.90;99.90;;;;;;10431423;28;20212;-71
2023/04/13 15:47:44;;;;;;;2.83;0.70;;;13.70;99.90;;;;;;10419598;28;20219;-72
2023/04/13 15:52:45;;;;;;;1.73;0.70;;;13.40;99.90;;;;;;10431239;28;20231;-71
2023/04/13 15:57:45;;;;;;;1.77;0.70;;;13.10;99.90;;;;;;10431180;28;20220;-71
2023/04/13 16:02:50;;;;;;;1.67;0.77;;;12.80;99.90;;;;;;10430236;28;20224;-71
2023/04/13 16:07:51;;;;;;;3.93;0.90;;;12.40;99.90;;;;;;10428022;28;20223;-72
2023/04/13 16:12:53;;;;;;;1.80;0.57;;;12.30;99.90;;;;;;10428054;28;20236;-72
2023/04/13 16:17:55;;;;;;;1.77;0.53;;;12.20;99.90;;;;;;10420348;28;20232;-71
2023/04/13 16:22:58;;;;;;;2.73;0.70;;;12.00;99.90;;;;;;10425270;28;20270;-71
2023/04/13 16:27:58;;;;;;;2.00;1.00;;;12.10;99.90;;;;;;10427312;28;20684;-72
2023/04/13 16:32:59;;;;;;;1.43;0.80;;;12.10;99.90;;;;;;10425412;28;20319;-72
2023/04/13 16:37:59;;;;;;;4.67;0.90;;;12.10;99.90;;;;;;10423569;28;20585;-72
2023/04/13 16:43:02;;;;;;;2.40;0.77;;;12.10;99.90;;;;;;10424999;28;20227;-71
2023/04/13 16:48:06;;;;;;;3.33;1.00;;;12.00;99.90;;;;;;10433094;28;20225;-72
2023/04/13 16:53:07;;;;;;;1.83;0.90;;;11.80;99.90;;;;;;10431402;28;20232;-71
2023/04/13 16:58:08;;;;;;;3.13;1.10;;;11.60;99.90;;;;;;10432034;28;20223;-73
2023/04/13 17:03:09;;;;;;;1.40;0.87;;;11.60;99.90;;;;;;10432266;28;20376;-72
2023/04/13 17:08:10;;;;;;;5.67;1.00;;;11.60;99.90;;;;;;10432502;28;20215;-71
2023/04/13 17:13:11;;;;;;;3.07;1.17;;;11.60;99.90;;;;;;10424938;28;20247;-71
2023/04/13 17:18:12;;;;;;;2.77;1.20;;;11.60;99.90;;;;;;10423216;28;20241;-72
2023/04/13 17:23:12;;;;;;;1.80;1.03;;;11.60;99.90;;;;;;10423501;28;20208;-73
2023/04/13 17:28:13;;;;;;;2.20;0.97;;;11.70;99.90;;;;;;10430083;28;20230;-72
2023/04/13 17:33:14;;;;;;;2.47;0.93;;;11.70;99.90;;;;;;10431591;28;20671;-71
2023/04/13 17:38:15;;;;;;;1.40;0.90;;;11.60;99.90;;;;;;10412929;28;20224;-71
2023/04/13 17:43:16;;;;;;;3.73;1.17;;;11.40;99.90;;;;;;10430948;28;20227;-75
2023/04/13 17:48:17;;;;;;;3.27;1.83;;;11.30;99.90;;;;;;10420885;28;20582;-73
2023/04/13 17:53:17;;;;;;;5.97;1.37;;;11.20;99.90;;;;;;10421952;28;20224;-74
2023/04/13 17:58:18;;;;;;;2.80;1.00;;;11.10;99.90;;;;;;10428319;28;20269;-73
2023/04/13 18:03:18;;;;;;;3.20;1.47;;;11.10;99.90;;;;;;10421568;28;20300;-73
2023/04/13 18:08:19;;;;;;;3.07;1.37;;;11.00;99.90;;;;;;10417278;28;20747;-72
2023/04/13 18:13:20;;;;;;;2.37;1.73;;;10.80;99.90;;;;;;10422845;28;20235;-73
2023/04/13 18:18:23;;;;;;;4.30;1.73;;;10.60;99.90;;;;;;10426848;28;20258;-73
2023/04/13 18:23:24;;;;;;;3.10;1.50;;;10.40;99.90;;;;;;10410851;28;20212;-72
2023/04/13 18:28:25;;;;;;;1.77;0.80;;;10.20;99.90;;;;;;10424147;28;20224;-72
2023/04/13 18:33:26;;;;;;;3.17;1.03;;;10.10;99.90;;;;;;10430573;28;20730;-73
2023/04/13 18:38:27;;;;;;;3.03;0.90;;;9.90;99.90;;;;;;10432010;28;20269;-73
2023/04/13 18:43:27;;;;;;;2.80;1.50;;;9.80;99.90;;;;;;10429063;28;20603;-73
2023/04/13 18:48:29;;;;;;;2.97;1.07;;;9.70;99.90;;;;;;10437024;28;20218;-73
2023/04/13 18:53:30;;;;;;;2.50;1.37;;;9.70;99.90;;;;;;10431257;28;20228;-73
2023/04/13 18:58:30;;;;;;;2.80;1.20;;;9.60;99.90;;;;;;10434879;28;20645;-74
2023/04/13 19:03:31;;;;;;;4.37;2.37;;;9.50;99.90;;;;;;10427272;28;20217;-71
2023/04/13 19:08:31;;;;;;;5.67;2.70;;;9.30;99.90;;;;;;10429602;28;20213;-72
2023/04/13 19:13:32;;;;;;;5.53;3.10;;;9.30;99.90;;;;;;10434580;28;20236;-71
2023/04/13 19:18:33;;;;;;;4.90;2.77;;;9.20;99.90;;;;;;10405807;28;20420;-73
2023/04/13 19:23:34;;;;;;;6.23;2.90;;;9.10;99.90;;;;;;10405135;28;20307;-74
2023/04/13 19:28:34;;;;;;;6.07;3.20;;;9.10;99.90;;;;;;10422423;28;20644;-73
2023/04/13 19:33:35;;;;;;;7.23;3.10;;;9.00;99.90;;;;;;10423067;28;20223;-72
2023/04/13 19:38:36;;;;;;;6.33;3.07;;;9.00;99.90;;;;;;10430100;28;20223;-71
2023/04/13 19:43:36;;;;;;;7.97;3.40;;;8.90;99.90;;;;;;10415771;28;20216;-72
2023/04/13 19:48:37;;;;;;;4.93;2.50;;;8.80;99.90;;;;;;10431985;28;20220;-72
2023/04/13 19:53:38;;;;;;;3.23;1.73;;;8.70;99.90;;;;;;10425429;28;20259;-72
2023/04/13 19:58:38;;;;;;;4.30;1.73;;;8.50;99.90;;;;;;10428506;28;20212;-72
2023/04/13 20:03:39;;;;;;;4.00;1.67;;;8.40;99.90;;;;;;10430098;28;20608;-72
2023/04/13 20:08:43;;;;;;;2.43;1.77;;;8.30;99.90;;;;;;10420787;28;20212;-73
2023/04/13 20:13:45;;;;;;;5.13;1.43;;;8.30;99.90;;;;;;10428486;28;20235;-74
2023/04/13 20:18:45;;;;;;;2.57;1.67;;;8.30;99.90;;;;;;10431835;28;20219;-72
2023/04/13 20:23:46;;;;;;;4.33;1.63;;;8.20;99.90;;;;;;10430026;28;20242;-73
2023/04/13 20:28:46;;;;;;;3.50;1.63;;;8.20;99.90;;;;;;10415369;28;20216;-71
2023/04/13 20:33:47;;;;;;;4.50;2.20;;;8.20;99.90;;;;;;10427625;28;20230;-75
2023/04/13 20:38:53;;;;;;;2.53;1.67;;;8.20;99.90;;;;;;10425644;28;20310;-76
2023/04/13 20:43:53;;;;;;;3.33;1.60;;;8.10;99.90;;;;;;10405729;28;20680;-73
2023/04/13 20:48:54;;;;;;;5.80;2.20;;;8.10;99.90;;;;;;10422822;28;20227;-73
2023/04/13 20:53:56;;;;;;;2.53;1.97;;;8.00;99.90;;;;;;10432264;28;20219;-75
2023/04/13 20:58:57;;;;;;;6.87;2.60;;;7.80;99.90;;;;;;10424626;28;20215;-75
2023/04/13 21:03:58;;;;;;;4.53;2.40;;;7.80;99.90;;;;;;10429670;28;20630;-70
2023/04/13 21:08:58;;;;;;;5.67;2.30;;;7.70;99.90;;;;;;10426013;28;20212;-70
2023/04/13 21:14:02;;;;;;;4.43;2.83;;;7.60;99.90;;;;;;10425939;28;20619;-73
2023/04/13 21:19:03;;;;;;;6.33;3.40;;;7.50;99.90;;;;;;10425245;28;20240;-70
2023/04/13 21:24:04;;;;;;;5.10;3.03;;;7.50;99.90;;;;;;10431338;28;20242;-69
2023/04/13 21:29:06;;;;;;;4.40;2.60;;;7.40;99.90;;;;;;10419748;28;20215;-69
2023/04/13 21:34:06;;;;;;;5.50;2.93;;;7.40;99.90;;;;;;10424277;28;20226;-70
2023/04/13 21:39:07;;;;;;;5.73;2.90;;;7.40;99.90;;;;;;10426701;28;20638;-70
2023/04/13 21:44:08;;;;;;;4.70;3.40;;;7.30;99.90;;;;;;10423220;28;20669;-70
2023/04/13 21:49:09;;;;;;;4.80;3.10;;;7.20;99.90;;;;;;10430577;28;20226;-69
2023/04/13 21:54:13;;;;;;;4.20;2.60;;;7.20;99.90;;;;;;10423329;28;20225;-70
2023/04/13 21:59:13;;;;;;;4.97;2.67;;;7.20;99.90;;;;;;10420790;28;20211;-70
2023/04/13 22:04:14;;;;;;;3.07;2.27;;;7.10;99.90;;;;;;10432599;28;20223;-71
2023/04/13 22:09:15;;;;;;;3.70;2.60;;;7.10;99.90;;;;;;10428826;28;20699;-70
2023/04/13 22:14:15;;;;;;;3.30;2.57;;;7.10;99.90;;;;;;10429839;28;20219;-69
2023/04/13 22:19:16;;;;;;;4.97;2.20;;;7.00;99.90;;;;;;10430793;28;20222;-68
2023/04/13 22:24:16;;;;;;;5.67;2.87;;;7.00;99.90;;;;;;10434546;28;20724;-68
2023/04/13 22:29:17;;;;;;;5.13;3.10;;;7.00;99.90;;;;;;10430498;28;20224;-69
2023/04/13 22:34:17;;;;;;;6.03;2.97;;;7.10;99.90;;;;;;10435355;28;20510;-68
2023/04/13 22:39:18;;;;;;;6.23;3.33;;;7.10;99.90;;;;;;10427680;28;20222;-68
2023/04/13 22:44:18;;;;;;;5.33;3.10;;;7.00;99.90;;;;;;10430017;28;20224;-68
2023/04/13 22:49:19;;;;;;;3.97;3.00;;;6.90;99.90;;;;;;10437051;28;20226;-69
2023/04/13 22:54:23;;;;;;;6.83;2.93;;;6.80;99.90;;;;;;10428947;28;20230;-69
2023/04/13 22:59:24;;;;;;;6.73;3.30;;;6.70;99.90;;;;;;10435498;28;20235;-69
2023/04/13 23:04:25;;;;;;;5.50;3.20;;;6.60;99.90;;;;;;10430875;28;20228;-70
2023/04/13 23:09:25;;;;;;;4.47;3.43;;;6.60;99.90;;;;;;10435722;28;20250;-70
2023/04/13 23:14:26;;;;;;;5.20;2.80;;;6.50;99.90;;;;;;10428117;28;20212;-68
2023/04/13 23:19:27;;;;;;;4.57;3.10;;;6.40;99.90;;;;;;10427459;28;20900;-68
2023/04/13 23:24:27;;;;;;;5.77;3.03;;;6.30;99.90;;;;;;10427254;28;20292;-72
2023/04/13 23:29:31;;;;;;;7.70;3.57;;;6.40;99.90;;;;;;10434942;28;20885;-72
2023/04/13 23:34:31;;;;;;;7.30;3.10;;;6.40;99.90;;;;;;10429239;28;20691;-71
2023/04/13 23:39:33;;;;;;;4.37;2.93;;;6.50;99.90;;;;;;10428672;28;20259;-70
2023/04/13 23:44:33;;;;;;;4.57;2.93;;;6.60;99.90;;;;;;10427693;28;20244;-71
2023/04/13 23:49:34;;;;;;;5.50;2.40;;;6.70;99.90;;;;;;10433248;28;20231;-71
2023/04/13 23:54:35;;;;;;;8.10;2.80;;;6.90;99.90;;;;;;10425496;28;20609;-71
2023/04/13 23:59:36;;;;;;;5.60;3.00;;;7.00;99.90;;;;;;10429773;28;20227;-72
